Vremea acum in Campeni - Romania

Vrei sa afli care e starea vremii acum in Alba - Romania? Dorim sa iti furnizam starea vremii pentru Alba - Romania. Starea vremii Alba - Romania pentru astazi.

Vremea acum in Campeni

Temperatura: 14 °C

Se simte ca: 12.8 °C
Innorat: 75 %
Precipitatii: 86 %
Presiune atmosferica: 1010 hPa
Umiditate: 82%
Vizibilitate: 10 km
Vantul bate din SSW cu 15.1 km/h

Evolutia vremii in Campeni pe ore

Ora: 07:00
Burniță uşoară
Temperatura: 9.1°C
Sansa de precipitatii: 86%
Ora Descriere Temp Se simte Precipitatii Umiditate Vant
00:00Ceață densă7.6°0%99%WSW 9 KM/H
01:00Ceață densă8.7°7.2°0%99%WSW 9.7 KM/H
02:00Ceață densă8.5°6.8°0%99%WSW 10.4 KM/H
03:00Burniță uşoară8.6°6.8°30%99%WSW 11.2 KM/H
04:00Ceață densă8.7°6.7°59%99%WSW 12.2 KM/H
05:00Burniță uşoară8.8°6.7°89%99%WSW 13 KM/H
06:00Burniță uşoară8.9°7.1°87%99%WSW 11.9 KM/H
07:00Burniță uşoară9.1°7.4°86%98%WSW 10.4 KM/H
08:00Burniță uşoară9.2°7.8°84%98%WSW 9.4 KM/H
09:00Burniță uşoară10.1°8.7°83%96%WSW 10.1 KM/H
10:00Burniță uşoară10.9°9.7°82%93%WSW 10.4 KM/H
11:00Burniță uşoară11.8°10.6°81%91%WSW 11.2 KM/H
12:00Burniță uşoară11.7°10.5°77%91%WSW 10.4 KM/H
13:00Burniță uşoară11.5°10.5°72%90%WSW 10.1 KM/H
14:00Burniță uşoară11.4°10.4°68%90%WSW 9.4 KM/H
15:00Parțial noros12.5°11.7°45%84%WSW 9.4 KM/H
16:00Burniță uşoară13.7°13.1°23%77%WSW 9.4 KM/H
17:00Parțial noros14.8°14.4°0%70%WSW 9.4 KM/H
18:00Ceață13.8°13.5°22%79%WSW 7.6 KM/H
19:00Parțial noros12.8°12.7°45%88%WSW 6.1 KM/H
20:00Ceață11.8°11.8°67%97%WSW 4.3 KM/H
21:00Ceață densă10.2°10.2°72%97%W 3.2 KM/H
22:00Ceață8.7°8.7°77%98%WNW 2.5 KM/H
23:00Ceață densă7.1°7.1°82%98%NW 1.4 KM/H